Time;durP1;ratioP1;P1;durP2;ratioP2;P2;SDS_P1;SDS_P2;PMS_P1;PMS_P2;Temp;Humidity;BMP_temperature;BMP_pressure;BME280_temperature;BME280_humidity;BME280_pressure;Samples;Min_cycle;Max_cycle;Signal;HPM_P1;HPM_P2
2023/08/08 00:00:45;;;;;;;0.20;0.20;;;;;;;;;;10410551;28;20218;-74
2023/08/08 00:05:46;;;;;;;2.35;0.50;;;;;;;;;;10412559;28;20220;-75
2023/08/08 00:10:47;;;;;;;0.22;0.20;;;;;;;;;;10407083;28;20210;-75
2023/08/08 00:15:48;;;;;;;1.77;0.30;;;;;;;;;;10371980;28;20225;-74
2023/08/08 00:20:49;;;;;;;1.02;0.57;;;;;;;;;;10349550;28;20282;-73
2023/08/08 00:25:51;;;;;;;1.17;0.52;;;;;;;;;;10344090;28;20922;-72
2023/08/08 00:30:52;;;;;;;2.28;0.38;;;;;;;;;;10342129;28;20808;-72
2023/08/08 00:35:53;;;;;;;1.08;0.30;;;;;;;;;;10346679;28;20224;-74
2023/08/08 00:40:54;;;;;;;0.60;0.50;;;;;;;;;;10347090;28;20224;-73
2023/08/08 00:45:57;;;;;;;0.45;0.40;;;;;;;;;;10344370;28;20320;-74
2023/08/08 00:50:59;;;;;;;0.20;0.20;;;;;;;;;;10343527;28;20717;-76
2023/08/08 00:56:00;;;;;;;0.30;0.30;;;;;;;;;;10337042;28;20281;-71
2023/08/08 01:01:01;;;;;;;0.40;0.30;;;;;;;;;;10341000;28;20227;-73
2023/08/08 01:06:06;;;;;;;0.70;0.32;;;;;;;;;;10347573;28;20725;-72
2023/08/08 01:11:07;;;;;;;3.50;0.50;;;;;;;;;;10344876;28;20278;-72
2023/08/08 01:16:10;;;;;;;0.20;0.20;;;;;;;;;;10320043;28;20224;-74
2023/08/08 01:21:11;;;;;;;0.20;0.20;;;;;;;;;;10346848;28;20219;-74
2023/08/08 01:26:12;;;;;;;0.50;0.30;;;;;;;;;;10335544;28;20234;-71
2023/08/08 01:31:14;;;;;;;2.05;0.40;;;;;;;;;;10330798;28;20228;-72
2023/08/08 01:36:25;;;;;;;0.55;0.50;;;;;;;;;;10328551;28;20752;-72
2023/08/08 01:41:27;;;;;;;0.30;0.30;;;;;;;;;;10328502;28;20252;-73
2023/08/08 01:46:28;;;;;;;3.28;0.68;;;;;;;;;;10334416;28;20696;-74
2023/08/08 01:51:29;;;;;;;0.65;0.30;;;;;;;;;;10317216;28;20227;-74
2023/08/08 01:56:31;;;;;;;0.30;0.30;;;;;;;;;;10333634;28;20864;-73
2023/08/08 02:01:32;;;;;;;0.40;0.40;;;;;;;;;;10332027;28;20795;-74
2023/08/08 02:06:33;;;;;;;0.30;0.30;;;;;;;;;;10331754;28;20212;-74
2023/08/08 02:11:34;;;;;;;0.95;0.40;;;;;;;;;;10336454;28;20610;-74
2023/08/08 02:16:35;;;;;;;0.40;0.40;;;;;;;;;;10420458;28;20862;-76
2023/08/08 02:21:36;;;;;;;0.30;0.30;;;;;;;;;;10406486;28;20226;-73
2023/08/08 02:26:37;;;;;;;0.90;0.90;;;;;;;;;;10402963;28;20702;-75
2023/08/08 02:31:43;;;;;;;1.20;0.80;;;;;;;;;;10404163;28;20234;-76
2023/08/08 02:36:44;;;;;;;0.52;0.40;;;;;;;;;;10421835;28;20219;-74
2023/08/08 02:41:45;;;;;;;0.35;0.35;;;;;;;;;;10400033;28;20732;-74
2023/08/08 02:46:47;;;;;;;1.17;0.30;;;;;;;;;;10394890;28;20206;-73
2023/08/08 02:51:48;;;;;;;0.30;0.30;;;;;;;;;;10402900;28;20229;-74
2023/08/08 02:56:49;;;;;;;2.72;0.50;;;;;;;;;;10394054;28;20219;-72
2023/08/08 03:01:52;;;;;;;0.35;0.35;;;;;;;;;;10406059;28;20206;-72
2023/08/08 03:06:53;;;;;;;0.35;0.35;;;;;;;;;;10408220;28;20225;-74
2023/08/08 03:11:55;;;;;;;1.08;0.45;;;;;;;;;;10398455;28;20228;-73
2023/08/08 03:16:57;;;;;;;0.40;0.40;;;;;;;;;;10390310;28;20256;-74
2023/08/08 03:21:58;;;;;;;0.32;0.32;;;;;;;;;;10404700;28;20237;-70
2023/08/08 03:27:00;;;;;;;0.30;0.30;;;;;;;;;;10389199;28;20214;-72
2023/08/08 03:32:03;;;;;;;1.40;0.60;;;;;;;;;;10393667;28;20227;-74
2023/08/08 03:37:06;;;;;;;4.38;0.45;;;;;;;;;;10403501;28;21073;-72
2023/08/08 03:42:07;;;;;;;0.55;0.55;;;;;;;;;;10395483;28;20301;-73
2023/08/08 03:47:09;;;;;;;0.40;0.40;;;;;;;;;;10394937;28;20228;-72
2023/08/08 03:52:10;;;;;;;2.05;0.47;;;;;;;;;;10405244;28;20234;-71
2023/08/08 03:57:11;;;;;;;0.40;0.40;;;;;;;;;;10413705;28;20225;-72
2023/08/08 04:02:12;;;;;;;0.55;0.55;;;;;;;;;;10412691;28;20225;-73
2023/08/08 04:07:13;;;;;;;0.30;0.30;;;;;;;;;;10411450;28;20226;-73
2023/08/08 04:12:15;;;;;;;2.10;0.40;;;;;;;;;;10397417;28;21007;-72
2023/08/08 04:17:16;;;;;;;1.65;0.60;;;;;;;;;;10408624;28;20725;-72
2023/08/08 04:22:17;;;;;;;1.10;0.40;;;;;;;;;;10410391;28;20221;-73
2023/08/08 04:27:18;;;;;;;0.60;0.60;;;;;;;;;;10424079;28;20218;-71
2023/08/08 04:32:19;;;;;;;1.75;0.73;;;;;;;;;;10425726;28;20268;-72
2023/08/08 04:37:20;;;;;;;1.95;0.40;;;;;;;;;;10414797;28;20223;-72
2023/08/08 04:42:22;;;;;;;1.83;0.45;;;;;;;;;;10382927;28;20218;-69
2023/08/08 04:47:23;;;;;;;1.02;0.60;;;;;;;;;;10411269;28;20211;-72
2023/08/08 04:52:24;;;;;;;0.43;0.43;;;;;;;;;;10414148;28;20227;-70
2023/08/08 04:57:25;;;;;;;0.35;0.35;;;;;;;;;;10411798;28;20219;-70
2023/08/08 05:02:26;;;;;;;0.50;0.50;;;;;;;;;;10412707;28;20226;-71
2023/08/08 05:07:27;;;;;;;0.50;0.50;;;;;;;;;;10408640;28;20893;-71
2023/08/08 05:12:28;;;;;;;0.82;0.50;;;;;;;;;;10415413;28;20230;-72
2023/08/08 05:17:32;;;;;;;0.47;0.45;;;;;;;;;;10410040;28;20226;-72
2023/08/08 05:22:33;;;;;;;0.50;0.50;;;;;;;;;;10410774;28;20792;-71
2023/08/08 05:27:34;;;;;;;0.90;0.32;;;;;;;;;;10411521;28;20210;-71
2023/08/08 05:32:36;;;;;;;0.68;0.68;;;;;;;;;;10417248;28;20238;-73
2023/08/08 05:37:37;;;;;;;0.40;0.40;;;;;;;;;;10417723;28;20222;-73
2023/08/08 05:42:38;;;;;;;0.57;0.57;;;;;;;;;;10392598;28;20705;-71
2023/08/08 05:47:39;;;;;;;0.50;0.50;;;;;;;;;;10402391;28;20220;-72
2023/08/08 05:52:40;;;;;;;2.65;0.55;;;;;;;;;;10407735;28;20215;-70
2023/08/08 05:57:42;;;;;;;0.70;0.40;;;;;;;;;;10412770;28;20254;-72
2023/08/08 06:02:43;;;;;;;0.43;0.43;;;;;;;;;;10410401;28;20223;-72
2023/08/08 06:07:44;;;;;;;1.98;0.40;;;;;;;;;;10412591;28;20215;-72
2023/08/08 06:12:45;;;;;;;0.35;0.35;;;;;;;;;;10390631;28;20713;-75
2023/08/08 06:17:46;;;;;;;0.40;0.40;;;;;;;;;;10413182;28;20250;-72
2023/08/08 06:22:47;;;;;;;0.38;0.38;;;;;;;;;;10405545;28;20227;-72
2023/08/08 06:27:49;;;;;;;2.10;0.60;;;;;;;;;;10394708;28;20211;-73
2023/08/08 06:32:50;;;;;;;0.38;0.38;;;;;;;;;;10412723;28;20206;-72
2023/08/08 06:37:51;;;;;;;0.40;0.40;;;;;;;;;;10394086;28;20222;-74
2023/08/08 06:42:52;;;;;;;0.30;0.30;;;;;;;;;;10395980;28;20206;-74
2023/08/08 06:47:53;;;;;;;0.40;0.40;;;;;;;;;;10409280;28;21414;-72
2023/08/08 06:52:54;;;;;;;0.65;0.50;;;;;;;;;;10374748;28;20246;-73
2023/08/08 06:57:55;;;;;;;0.40;0.40;;;;;;;;;;10392802;28;20208;-73
2023/08/08 07:02:57;;;;;;;1.20;0.40;;;;;;;;;;10411865;28;20213;-73
2023/08/08 07:07:58;;;;;;;0.50;0.50;;;;;;;;;;10416552;28;20246;-72
2023/08/08 07:12:59;;;;;;;0.85;0.85;;;;;;;;;;10411949;28;20218;-71
2023/08/08 07:18:00;;;;;;;0.50;0.50;;;;;;;;;;10420434;28;20227;-72
2023/08/08 07:23:01;;;;;;;0.60;0.60;;;;;;;;;;10393415;28;20223;-72
2023/08/08 07:28:02;;;;;;;0.60;0.60;;;;;;;;;;10428753;28;20272;-72
2023/08/08 07:33:08;;;;;;;0.47;0.47;;;;;;;;;;10420661;28;20309;-74
2023/08/08 07:38:09;;;;;;;0.55;0.47;;;;;;;;;;10418099;28;20214;-74
2023/08/08 07:43:10;;;;;;;1.23;0.55;;;;;;;;;;10402547;28;20284;-74
2023/08/08 07:48:12;;;;;;;0.60;0.60;;;;;;;;;;10404268;28;20293;-73
2023/08/08 07:53:13;;;;;;;0.75;0.75;;;;;;;;;;10407288;28;20289;-75
2023/08/08 07:58:14;;;;;;;0.90;0.90;;;;;;;;;;10416270;28;20220;-74
2023/08/08 08:03:15;;;;;;;0.95;0.60;;;;;;;;;;10413869;28;20210;-74
2023/08/08 08:08:16;;;;;;;1.05;0.50;;;;;;;;;;10422728;28;20218;-75
2023/08/08 08:13:17;;;;;;;3.20;0.85;;;;;;;;;;10417618;28;20235;-76
2023/08/08 08:18:19;;;;;;;0.47;0.47;;;;;;;;;;10413981;28;20262;-73
2023/08/08 08:23:20;;;;;;;0.50;0.50;;;;;;;;;;10383496;28;20282;-75
2023/08/08 08:28:22;;;;;;;3.63;0.93;;;;;;;;;;10414748;28;20682;-73
2023/08/08 08:33:23;;;;;;;0.68;0.68;;;;;;;;;;10413119;28;20215;-75
2023/08/08 08:38:24;;;;;;;2.85;0.70;;;;;;;;;;10417124;28;20218;-76
2023/08/08 08:43:26;;;;;;;0.50;0.50;;;;;;;;;;10424265;28;20230;-75
2023/08/08 08:48:27;;;;;;;0.85;0.52;;;;;;;;;;10423901;28;20762;-76
2023/08/08 08:53:29;;;;;;;3.47;0.50;;;;;;;;;;10402213;28;21207;-74
2023/08/08 08:58:30;;;;;;;0.52;0.52;;;;;;;;;;10423368;28;20231;-74
2023/08/08 09:03:31;;;;;;;0.77;0.77;;;;;;;;;;10422284;28;20313;-75
2023/08/08 09:08:32;;;;;;;3.15;0.50;;;;;;;;;;10413414;28;21200;-76
2023/08/08 09:13:38;;;;;;;0.50;0.50;;;;;;;;;;10409330;28;20289;-74
2023/08/08 09:18:42;;;;;;;0.52;0.40;;;;;;;;;;10391385;28;20658;-76
2023/08/08 09:23:43;;;;;;;1.92;0.65;;;;;;;;;;10408149;28;20269;-73
2023/08/08 09:28:45;;;;;;;0.73;0.57;;;;;;;;;;10418297;28;20215;-72
2023/08/08 09:33:48;;;;;;;0.45;0.45;;;;;;;;;;10418444;28;20218;-74
2023/08/08 09:38:50;;;;;;;0.50;0.50;;;;;;;;;;10406764;28;20226;-75
2023/08/08 09:43:52;;;;;;;3.03;0.80;;;;;;;;;;10418996;28;20249;-76
2023/08/08 09:48:53;;;;;;;1.48;0.55;;;;;;;;;;10412257;28;20211;-76
2023/08/08 09:53:54;;;;;;;3.50;0.40;;;;;;;;;;10417691;28;20223;-77
2023/08/08 09:59:00;;;;;;;1.50;0.80;;;;;;;;;;10387835;28;20222;-75
2023/08/08 10:04:03;;;;;;;0.40;0.40;;;;;;;;;;10407043;28;20223;-76
2023/08/08 10:09:04;;;;;;;0.55;0.55;;;;;;;;;;10412448;28;20293;-77
2023/08/08 10:14:05;;;;;;;0.63;0.63;;;;;;;;;;10408398;28;20237;-75
2023/08/08 10:19:07;;;;;;;4.10;0.70;;;;;;;;;;10406366;28;20253;-74
2023/08/08 10:24:09;;;;;;;3.00;0.73;;;;;;;;;;10417203;28;20705;-75
2023/08/08 10:29:18;;;;;;;0.40;0.40;;;;;;;;;;10404379;28;20308;-73
2023/08/08 10:34:23;;;;;;;2.42;0.60;;;;;;;;;;10405495;28;20298;-74
2023/08/08 10:39:25;;;;;;;0.50;0.50;;;;;;;;;;10419382;28;20229;-74
2023/08/08 10:44:26;;;;;;;0.90;0.65;;;;;;;;;;10405901;28;20219;-74
2023/08/08 10:49:28;;;;;;;0.50;0.50;;;;;;;;;;10399829;28;20230;-80
2023/08/08 10:54:30;;;;;;;2.40;0.60;;;;;;;;;;10411040;28;20223;-74
2023/08/08 10:59:39;;;;;;;0.40;0.40;;;;;;;;;;10399129;28;20216;-78
2023/08/08 11:04:41;;;;;;;0.93;0.70;;;;;;;;;;10396015;28;20249;-74
2023/08/08 11:09:42;;;;;;;2.17;0.80;;;;;;;;;;10403880;28;20219;-74
2023/08/08 11:14:44;;;;;;;0.60;0.60;;;;;;;;;;10400539;28;20245;-73
2023/08/08 11:19:45;;;;;;;2.20;0.65;;;;;;;;;;10411029;28;20246;-75
2023/08/08 11:24:46;;;;;;;0.60;0.60;;;;;;;;;;10410411;28;20218;-74
2023/08/08 11:29:50;;;;;;;0.75;0.75;;;;;;;;;;10408425;28;20219;-74
2023/08/08 11:34:51;;;;;;;1.23;0.75;;;;;;;;;;10403323;28;20218;-76
2023/08/08 11:39:52;;;;;;;1.17;0.90;;;;;;;;;;10407533;28;20226;-75
2023/08/08 11:44:53;;;;;;;1.30;0.98;;;;;;;;;;10409143;28;20237;-77
2023/08/08 11:49:55;;;;;;;3.30;0.73;;;;;;;;;;10395883;28;20761;-74
2023/08/08 11:54:56;;;;;;;2.20;0.93;;;;;;;;;;10391661;28;20214;-78
2023/08/08 11:59:57;;;;;;;0.80;0.80;;;;;;;;;;10399787;28;20221;-76
2023/08/08 12:05:04;;;;;;;0.95;0.60;;;;;;;;;;10393200;28;20203;-77
2023/08/08 12:10:06;;;;;;;0.65;0.60;;;;;;;;;;10403078;28;20219;-75
2023/08/08 12:15:08;;;;;;;0.60;0.55;;;;;;;;;;10398275;28;20210;-75
2023/08/08 12:20:10;;;;;;;0.57;0.57;;;;;;;;;;10395771;28;20773;-76
2023/08/08 12:25:11;;;;;;;2.80;0.68;;;;;;;;;;10416408;28;20817;-75
2023/08/08 12:30:12;;;;;;;0.50;0.50;;;;;;;;;;10411078;28;21392;-75
2023/08/08 12:35:15;;;;;;;3.00;0.80;;;;;;;;;;10402583;28;20234;-77
2023/08/08 12:40:16;;;;;;;0.60;0.60;;;;;;;;;;10382666;28;20234;-73
2023/08/08 12:45:17;;;;;;;0.60;0.60;;;;;;;;;;10417649;28;20182;-75
2023/08/08 12:50:19;;;;;;;0.60;0.60;;;;;;;;;;10398206;28;20242;-74
2023/08/08 12:55:20;;;;;;;2.15;0.70;;;;;;;;;;10419296;28;20203;-73
2023/08/08 13:00:21;;;;;;;0.60;0.60;;;;;;;;;;10412887;28;20740;-75
2023/08/08 13:05:22;;;;;;;1.33;0.55;;;;;;;;;;10398883;28;20658;-74
2023/08/08 13:10:23;;;;;;;1.88;0.50;;;;;;;;;;10415689;28;20706;-75
2023/08/08 13:15:25;;;;;;;1.05;0.50;;;;;;;;;;10419588;28;20229;-77
2023/08/08 13:20:26;;;;;;;0.50;0.50;;;;;;;;;;10420313;28;20560;-73
2023/08/08 13:25:27;;;;;;;1.10;0.50;;;;;;;;;;10413387;28;20704;-75
2023/08/08 13:30:28;;;;;;;0.43;0.43;;;;;;;;;;10402831;28;20218;-75
2023/08/08 13:35:30;;;;;;;0.50;0.50;;;;;;;;;;10416608;28;20227;-74
2023/08/08 13:40:31;;;;;;;2.45;0.70;;;;;;;;;;10415519;28;20276;-74
2023/08/08 13:45:32;;;;;;;2.85;0.60;;;;;;;;;;10426314;28;20765;-74
2023/08/08 13:50:33;;;;;;;1.17;0.55;;;;;;;;;;10403268;28;20231;-75
2023/08/08 13:55:39;;;;;;;1.85;0.40;;;;;;;;;;10415759;28;21064;-74
2023/08/08 14:00:41;;;;;;;0.50;0.50;;;;;;;;;;10405942;28;20226;-74
2023/08/08 14:05:42;;;;;;;0.50;0.50;;;;;;;;;;10413749;28;20222;-76
2023/08/08 14:10:44;;;;;;;0.60;0.40;;;;;;;;;;10407817;28;20219;-74
2023/08/08 14:15:45;;;;;;;0.32;0.32;;;;;;;;;;10409513;28;20225;-77
2023/08/08 14:20:47;;;;;;;0.20;0.20;;;;;;;;;;10412934;28;20206;-75
2023/08/08 14:25:48;;;;;;;0.38;0.38;;;;;;;;;;10419507;28;20215;-76
2023/08/08 14:30:49;;;;;;;0.47;0.47;;;;;;;;;;10401642;28;20229;-74
2023/08/08 14:35:50;;;;;;;1.13;0.40;;;;;;;;;;10409147;28;20553;-76
2023/08/08 14:40:56;;;;;;;0.28;0.28;;;;;;;;;;10404398;28;20226;-75
2023/08/08 14:45:57;;;;;;;0.40;0.40;;;;;;;;;;10411002;28;20223;-76
2023/08/08 14:51:00;;;;;;;0.75;0.30;;;;;;;;;;10390505;28;20215;-75
2023/08/08 14:56:01;;;;;;;3.00;0.30;;;;;;;;;;10407113;28;20218;-76
2023/08/08 15:01:02;;;;;;;0.57;0.30;;;;;;;;;;10406511;28;21011;-75
2023/08/08 15:06:03;;;;;;;0.68;0.30;;;;;;;;;;10397951;28;20217;-74
2023/08/08 15:11:05;;;;;;;1.10;0.20;;;;;;;;;;10383648;28;20226;-76
2023/08/08 15:16:06;;;;;;;0.52;0.20;;;;;;;;;;10350084;28;20242;-76
2023/08/08 15:21:07;;;;;;;2.55;0.20;;;;;;;;;;10316684;28;20745;-76
2023/08/08 15:26:09;;;;;;;0.17;0.17;;;;;;;;;;10316322;28;20224;-76
2023/08/08 15:31:10;;;;;;;0.43;0.20;;;;;;;;;;10338138;28;20311;-76
2023/08/08 15:36:11;;;;;;;0.10;0.10;;;;;;;;;;10328103;28;20220;-75
2023/08/08 15:41:12;;;;;;;0.90;0.20;;;;;;;;;;10337172;28;20772;-75
2023/08/08 15:46:13;;;;;;;0.20;0.20;;;;;;;;;;10316743;28;20274;-77
2023/08/08 15:51:14;;;;;;;0.73;0.28;;;;;;;;;;10317641;28;20227;-75
2023/08/08 15:56:15;;;;;;;0.30;0.30;;;;;;;;;;10345281;28;20670;-74
2023/08/08 16:01:16;;;;;;;0.20;0.20;;;;;;;;;;10319950;28;20226;-74
2023/08/08 16:06:17;;;;;;;0.20;0.20;;;;;;;;;;10320365;28;20632;-76
2023/08/08 16:11:18;;;;;;;0.68;0.20;;;;;;;;;;10321445;28;20223;-76
2023/08/08 16:16:20;;;;;;;2.42;0.30;;;;;;;;;;10410537;28;20229;-76
2023/08/08 16:21:21;;;;;;;0.20;0.20;;;;;;;;;;10406632;28;20223;-77
2023/08/08 16:26:22;;;;;;;0.25;0.20;;;;;;;;;;10410238;28;20211;-76
2023/08/08 16:31:23;;;;;;;0.25;0.25;;;;;;;;;;10408839;28;20221;-76
2023/08/08 16:36:24;;;;;;;0.10;0.10;;;;;;;;;;10404690;28;20222;-77
2023/08/08 16:41:25;;;;;;;2.13;0.20;;;;;;;;;;10399983;28;20219;-76
2023/08/08 16:46:26;;;;;;;1.65;0.20;;;;;;;;;;10401240;28;20211;-77
2023/08/08 16:51:28;;;;;;;0.30;0.30;;;;;;;;;;10396797;28;20698;-75
2023/08/08 16:56:30;;;;;;;0.20;0.20;;;;;;;;;;10390924;28;20222;-76
2023/08/08 17:01:31;;;;;;;0.20;0.20;;;;;;;;;;10411759;28;20287;-76
2023/08/08 17:06:32;;;;;;;1.55;0.20;;;;;;;;;;10413528;28;21627;-76
2023/08/08 17:11:33;;;;;;;0.10;0.10;;;;;;;;;;10410409;28;20217;-77
2023/08/08 17:16:34;;;;;;;2.10;0.32;;;;;;;;;;10407825;28;20223;-78
2023/08/08 17:21:35;;;;;;;0.10;0.10;;;;;;;;;;10395445;28;20218;-77
2023/08/08 17:26:37;;;;;;;0.40;0.30;;;;;;;;;;10393424;28;20301;-76
2023/08/08 17:31:38;;;;;;;0.47;0.10;;;;;;;;;;10393284;28;20598;-78
2023/08/08 17:36:39;;;;;;;0.10;0.10;;;;;;;;;;10368780;28;20704;-77
2023/08/08 17:41:40;;;;;;;0.50;0.20;;;;;;;;;;10394096;28;20716;-76
2023/08/08 17:46:41;;;;;;;0.57;0.10;;;;;;;;;;10406327;28;20219;-78
2023/08/08 17:51:43;;;;;;;0.10;0.10;;;;;;;;;;10401937;28;20814;-76
2023/08/08 17:56:44;;;;;;;0.30;0.30;;;;;;;;;;10405820;28;21082;-77
2023/08/08 18:01:45;;;;;;;0.13;0.13;;;;;;;;;;10410915;28;20241;-78
2023/08/08 18:06:46;;;;;;;0.20;0.20;;;;;;;;;;10392322;28;20215;-74
2023/08/08 18:11:48;;;;;;;0.47;0.10;;;;;;;;;;10406351;28;20312;-75
2023/08/08 18:16:49;;;;;;;0.20;0.20;;;;;;;;;;10404805;28;20219;-76
2023/08/08 18:21:50;;;;;;;0.20;0.20;;;;;;;;;;10409389;28;20821;-76
2023/08/08 18:26:52;;;;;;;0.10;0.10;;;;;;;;;;10407603;28;20222;-74
2023/08/08 18:31:53;;;;;;;0.30;0.30;;;;;;;;;;10388777;28;20946;-75
2023/08/08 18:36:54;;;;;;;0.82;0.20;;;;;;;;;;10406378;28;20227;-76
2023/08/08 18:41:55;;;;;;;0.52;0.40;;;;;;;;;;10395003;28;20237;-76
2023/08/08 18:46:56;;;;;;;0.28;0.28;;;;;;;;;;10383657;28;20722;-76
2023/08/08 18:51:57;;;;;;;0.65;0.38;;;;;;;;;;10405105;28;20219;-77
2023/08/08 18:56:58;;;;;;;1.08;0.20;;;;;;;;;;10409770;28;20237;-77
2023/08/08 19:01:59;;;;;;;1.13;0.90;;;;;;;;;;10396782;28;20254;-77
2023/08/08 19:07:00;;;;;;;0.45;0.45;;;;;;;;;;10406042;28;20211;-75
2023/08/08 19:12:02;;;;;;;2.78;0.30;;;;;;;;;;10405950;28;20722;-77
2023/08/08 19:17:03;;;;;;;0.32;0.32;;;;;;;;;;10385695;28;20219;-76
2023/08/08 19:22:04;;;;;;;2.53;1.13;;;;;;;;;;10404309;28;20584;-75
2023/08/08 19:27:05;;;;;;;1.05;0.75;;;;;;;;;;10401320;28;20246;-77
2023/08/08 19:32:06;;;;;;;0.82;0.70;;;;;;;;;;10403457;28;20219;-75
2023/08/08 19:37:08;;;;;;;0.30;0.28;;;;;;;;;;10403442;28;20272;-76
2023/08/08 19:42:09;;;;;;;0.40;0.40;;;;;;;;;;10407918;28;20807;-76
2023/08/08 19:47:10;;;;;;;0.30;0.30;;;;;;;;;;10407346;28;20585;-73
2023/08/08 19:52:11;;;;;;;2.08;0.43;;;;;;;;;;10397618;28;20214;-74
2023/08/08 19:57:12;;;;;;;0.25;0.20;;;;;;;;;;10401787;28;20230;-75
2023/08/08 20:02:13;;;;;;;0.20;0.20;;;;;;;;;;10405038;28;20705;-77
2023/08/08 20:07:14;;;;;;;0.20;0.20;;;;;;;;;;10389112;28;20284;-75
2023/08/08 20:12:15;;;;;;;0.20;0.20;;;;;;;;;;10389600;28;20234;-74
2023/08/08 20:17:17;;;;;;;0.20;0.20;;;;;;;;;;10401133;28;20233;-76
2023/08/08 20:22:18;;;;;;;0.10;0.10;;;;;;;;;;10386098;28;20214;-75
2023/08/08 20:27:19;;;;;;;0.20;0.20;;;;;;;;;;10391213;28;20301;-75
2023/08/08 20:32:20;;;;;;;0.20;0.20;;;;;;;;;;10404518;28;20226;-73
2023/08/08 20:37:21;;;;;;;0.43;0.20;;;;;;;;;;10396954;28;20223;-76
2023/08/08 20:42:22;;;;;;;0.20;0.20;;;;;;;;;;10412131;28;20214;-75
2023/08/08 20:47:23;;;;;;;0.75;0.38;;;;;;;;;;10415876;28;20306;-75
2023/08/08 20:52:24;;;;;;;0.40;0.40;;;;;;;;;;10413091;28;20219;-74
2023/08/08 20:57:26;;;;;;;0.30;0.30;;;;;;;;;;10407392;28;20222;-75
2023/08/08 21:02:27;;;;;;;0.25;0.25;;;;;;;;;;10403095;28;20225;-73
2023/08/08 21:07:29;;;;;;;1.17;0.20;;;;;;;;;;10409933;28;20222;-74
2023/08/08 21:12:30;;;;;;;0.20;0.20;;;;;;;;;;10411527;28;20241;-74
2023/08/08 21:17:31;;;;;;;0.20;0.20;;;;;;;;;;10418464;28;20252;-74
2023/08/08 21:22:32;;;;;;;1.45;0.50;;;;;;;;;;10422757;28;20289;-75
2023/08/08 21:27:33;;;;;;;0.20;0.20;;;;;;;;;;10416308;28;20220;-75
2023/08/08 21:32:35;;;;;;;0.20;0.20;;;;;;;;;;10421686;28;20640;-74
2023/08/08 21:37:38;;;;;;;0.20;0.20;;;;;;;;;;10419723;28;20602;-73
2023/08/08 21:42:39;;;;;;;1.95;0.17;;;;;;;;;;10424370;28;20219;-74
2023/08/08 21:47:40;;;;;;;0.75;0.40;;;;;;;;;;10417014;28;20309;-74
2023/08/08 21:52:41;;;;;;;0.28;0.28;;;;;;;;;;10420174;28;20742;-74
2023/08/08 21:57:42;;;;;;;0.20;0.20;;;;;;;;;;10416185;28;20309;-75
2023/08/08 22:02:43;;;;;;;0.20;0.20;;;;;;;;;;10410092;28;20666;-74
2023/08/08 22:07:44;;;;;;;0.30;0.30;;;;;;;;;;10406499;28;20588;-75
2023/08/08 22:12:45;;;;;;;0.68;0.20;;;;;;;;;;10414499;28;20263;-74
2023/08/08 22:17:46;;;;;;;0.30;0.30;;;;;;;;;;10421599;28;20227;-73
2023/08/08 22:22:47;;;;;;;0.20;0.20;;;;;;;;;;10422535;28;20215;-75
2023/08/08 22:27:48;;;;;;;0.35;0.35;;;;;;;;;;10416634;28;20219;-75
2023/08/08 22:32:50;;;;;;;0.40;0.40;;;;;;;;;;10417618;28;20211;-75
2023/08/08 22:37:51;;;;;;;0.35;0.35;;;;;;;;;;10415724;28;20720;-74
2023/08/08 22:42:52;;;;;;;0.30;0.30;;;;;;;;;;10414510;28;21355;-74
2023/08/08 22:47:54;;;;;;;0.40;0.30;;;;;;;;;;10414255;28;20219;-75
2023/08/08 22:52:55;;;;;;;2.38;0.30;;;;;;;;;;10413157;28;20227;-75
2023/08/08 22:57:56;;;;;;;0.30;0.30;;;;;;;;;;10415326;28;20217;-74
2023/08/08 23:02:57;;;;;;;0.20;0.20;;;;;;;;;;10418607;28;20226;-74
2023/08/08 23:07:58;;;;;;;0.20;0.20;;;;;;;;;;10411838;28;20218;-74
2023/08/08 23:12:59;;;;;;;0.20;0.20;;;;;;;;;;10418574;28;20242;-74
2023/08/08 23:18:00;;;;;;;0.25;0.25;;;;;;;;;;10416095;28;20229;-74
2023/08/08 23:23:02;;;;;;;0.20;0.20;;;;;;;;;;10415662;28;20603;-75
2023/08/08 23:28:03;;;;;;;0.20;0.20;;;;;;;;;;10397895;28;20210;-73
2023/08/08 23:33:04;;;;;;;0.75;0.40;;;;;;;;;;10420255;28;20222;-75
2023/08/08 23:38:05;;;;;;;0.20;0.20;;;;;;;;;;10413454;28;20223;-74
2023/08/08 23:43:06;;;;;;;0.55;0.30;;;;;;;;;;10419195;28;20237;-76
2023/08/08 23:48:07;;;;;;;0.30;0.30;;;;;;;;;;10414599;28;20218;-74
2023/08/08 23:53:08;;;;;;;0.22;0.20;;;;;;;;;;10405922;28;20588;-76
2023/08/08 23:58:09;;;;;;;0.30;0.30;;;;;;;;;;10410544;28;20260;-73
